createdAt,value
2023-12-27T00:04:29.215Z,0.7
2023-12-27T00:14:28.305Z,0.8
2023-12-27T00:19:29.128Z,0.8
2023-12-27T00:29:28.080Z,0.7
2023-12-27T00:34:28.682Z,0.7
2023-12-27T00:44:25.268Z,0.7
2023-12-27T00:49:25.422Z,0.7
2023-12-27T00:59:25.473Z,0.8
2023-12-27T01:01:28.794Z,0.8
2023-12-27T01:10:48.851Z,0.7
2023-12-27T01:20:45.619Z,0.7
2023-12-27T01:25:45.362Z,0.8
2023-12-27T01:35:45.685Z,0.8
2023-12-27T01:40:45.291Z,0.7
2023-12-27T01:50:45.930Z,0.8
2023-12-27T01:55:46.710Z,0.7
2023-12-27T02:05:18.780Z,0.7
2023-12-27T02:10:18.679Z,0.7
2023-12-27T02:20:20.005Z,0.7
2023-12-27T02:25:19.526Z,0.7
2023-12-27T02:30:24.718Z,0.7
2023-12-27T02:35:18.568Z,0.7
2023-12-27T02:40:17.697Z,0.7
2023-12-27T02:50:19.135Z,0.7
2023-12-27T02:55:18.941Z,0.7
2023-12-27T02:59:52.702Z,0.7
2023-12-27T03:04:51.926Z,0.7
2023-12-27T03:14:51.939Z,0.7
2023-12-27T03:19:51.971Z,0.7
2023-12-27T03:29:51.719Z,0.7
2023-12-27T03:34:51.857Z,0.7
2023-12-27T03:44:48.685Z,0.7
2023-12-27T03:49:48.718Z,0.7
2023-12-27T03:59:31.326Z,0.7
2023-12-27T04:04:31.467Z,0.6
2023-12-27T04:14:31.287Z,0.7
2023-12-27T04:19:32.018Z,0.7
2023-12-27T04:29:28.213Z,0.7
2023-12-27T04:34:28.309Z,0.7
2023-12-27T04:44:27.963Z,0.7
2023-12-27T04:49:28.780Z,0.7
2023-12-27T04:59:28.306Z,0.7
2023-12-27T05:04:29.565Z,0.7
2023-12-27T05:14:25.335Z,0.7
2023-12-27T05:19:25.318Z,0.7
2023-12-27T05:29:26.706Z,0.7
2023-12-27T05:34:25.876Z,0.7
2023-12-27T05:44:25.091Z,0.6
2023-12-27T05:49:22.985Z,0.6
2023-12-27T05:59:22.249Z,0.7
2023-12-27T06:01:27.798Z,0.7
2023-12-27T06:05:44.800Z,0.7
2023-12-27T06:10:44.902Z,0.6
2023-12-27T06:25:42.885Z,0.7
2023-12-27T06:40:42.338Z,0.7
2023-12-27T06:55:42.299Z,1.4
2023-12-27T07:00:05.480Z,2.8
2023-12-27T07:05:04.486Z,3.4
2023-12-27T07:10:03.311Z,5.4
2023-12-27T07:20:03.828Z,4.2
2023-12-27T07:25:03.171Z,5.7
2023-12-27T07:35:03.198Z,8.9
2023-12-27T07:40:03.028Z,14.5
2023-12-27T07:50:01.492Z,18.6
2023-12-27T07:55:00.422Z,22.4
2023-12-27T08:04:46.553Z,39.6
2023-12-27T08:19:46.543Z,36.9
2023-12-27T08:24:46.335Z,49.5
2023-12-27T08:34:43.200Z,123.8
2023-12-27T08:49:43.374Z,97.7
2023-12-27T09:04:43.670Z,158.6
2023-12-27T09:19:40.863Z,189
2023-12-27T09:34:41.473Z,209.5
2023-12-27T09:49:43.309Z,185.1
2023-12-27T10:04:38.948Z,116.1
2023-12-27T10:19:39.966Z,165.4
2023-12-27T10:34:37.573Z,112.3
2023-12-27T10:49:38.074Z,293.2
2023-12-27T11:04:37.865Z,272.7
2023-12-27T11:19:36.057Z,206.8
2023-12-27T11:24:35.710Z,226.7
2023-12-27T11:29:35.720Z,209.7
2023-12-27T11:34:35.707Z,179.3
2023-12-27T11:44:35.510Z,232.9
2023-12-27T11:49:35.821Z,232.3
2023-12-27T11:59:32.418Z,234.5
2023-12-27T12:04:32.189Z,203.5
2023-12-27T12:09:31.574Z,188.2
2023-12-27T12:14:31.906Z,202.4
2023-12-27T12:19:32.634Z,174.9
2023-12-27T12:29:32.095Z,151.1
2023-12-27T12:34:32.845Z,159.6
2023-12-27T12:44:30.463Z,138.7
2023-12-27T12:49:29.301Z,139.4
2023-12-27T12:54:28.983Z,128
2023-12-27T12:59:29.048Z,126.9
2023-12-27T13:04:29.250Z,128.1
2023-12-27T13:14:28.846Z,118.6
2023-12-27T13:19:30.505Z,115.9
2023-12-27T13:29:25.538Z,101.4
2023-12-27T13:34:25.951Z,92.8
2023-12-27T13:39:25.909Z,88.3
2023-12-27T13:44:25.515Z,83.3
2023-12-27T13:49:26.650Z,83.1
2023-12-27T13:59:26.771Z,73.4
2023-12-27T14:01:32.946Z,73.2
2023-12-27T14:10:48.109Z,62.7
2023-12-27T14:25:48.489Z,50.1
2023-12-27T14:40:48.574Z,36.2
2023-12-27T14:55:46.590Z,23.4
2023-12-27T15:05:19.561Z,16.3
2023-12-27T15:10:19.554Z,13.2
2023-12-27T15:20:06.343Z,7.7
2023-12-27T15:25:05.342Z,5.2
2023-12-27T15:35:05.493Z,2.8
2023-12-27T15:50:05.341Z,3.5
2023-12-27T15:59:51.225Z,1.5
2023-12-27T16:04:54.308Z,1.4
2023-12-27T16:14:50.693Z,1.1
2023-12-27T16:19:51.893Z,1
2023-12-27T16:29:50.053Z,1.1
2023-12-27T16:34:50.302Z,1.1
2023-12-27T16:44:47.656Z,1.1
2023-12-27T16:49:47.606Z,1.2
2023-12-27T16:59:30.978Z,1.1
2023-12-27T17:04:31.451Z,1.1
2023-12-27T17:14:31.544Z,1.2
2023-12-27T17:19:30.198Z,1.2
2023-12-27T17:29:29.962Z,1.2
2023-12-27T17:34:30.958Z,1.2
2023-12-27T17:44:29.436Z,1.2
2023-12-27T17:49:30.030Z,1.1
2023-12-27T17:59:29.645Z,1.3
2023-12-27T18:04:27.731Z,1.2
2023-12-27T18:14:26.470Z,1.2
2023-12-27T18:19:27.009Z,1.1
2023-12-27T18:29:26.547Z,1.1
2023-12-27T18:34:27.197Z,1.1
2023-12-27T18:44:27.874Z,1.1
2023-12-27T18:49:24.365Z,1.2
2023-12-27T18:59:24.033Z,1.2
2023-12-27T19:01:26.561Z,1.1
2023-12-27T19:05:47.183Z,1.1
2023-12-27T19:10:47.416Z,1.2
2023-12-27T19:20:48.382Z,1
2023-12-27T19:25:44.263Z,1.2
2023-12-27T19:35:44.044Z,1.1
2023-12-27T19:40:44.295Z,1.2
2023-12-27T19:50:44.287Z,1.2
2023-12-27T19:55:44.116Z,1
2023-12-27T20:05:05.097Z,1
2023-12-27T20:10:04.372Z,1
2023-12-27T20:20:05.050Z,1.1
2023-12-27T20:35:05.380Z,1.1
2023-12-27T20:50:02.399Z,1.1
2023-12-27T21:04:51.183Z,1.1
2023-12-27T21:19:51.832Z,1.1
2023-12-27T21:29:51.690Z,1
2023-12-27T21:34:48.863Z,1.1
2023-12-27T21:44:48.567Z,1.1
2023-12-27T21:49:48.998Z,1.1
2023-12-27T21:59:32.419Z,1.1
2023-12-27T22:04:32.444Z,1
2023-12-27T22:14:29.748Z,1
2023-12-27T22:29:29.792Z,1
2023-12-27T22:34:29.973Z,1
2023-12-27T22:44:29.088Z,0.9
2023-12-27T22:49:28.054Z,1
2023-12-27T22:54:28.039Z,0.9
2023-12-27T22:59:27.561Z,1
2023-12-27T23:04:28.387Z,0.9
2023-12-27T23:14:27.109Z,1
2023-12-27T23:19:28.159Z,1
2023-12-27T23:29:26.089Z,1
2023-12-27T23:34:25.971Z,1
2023-12-27T23:44:25.586Z,1
2023-12-27T23:49:25.850Z,1
2023-12-27T23:59:25.200Z,0.9
